sensor_id;sensor_type;location;lat;lon;timestamp;P1;durP1;ratioP1;P2;durP2;ratioP2
46845;SDS011;33947;46.804;134.252;2023-06-24T00:00:53;5.50;;;4.00;;
46845;SDS011;33947;46.804;134.252;2023-06-24T00:04:00;8.00;;;4.30;;
46845;SDS011;33947;46.804;134.252;2023-06-24T00:07:06;10.55;;;4.68;;
46845;SDS011;33947;46.804;134.252;2023-06-24T00:10:13;6.70;;;4.70;;
46845;SDS011;33947;46.804;134.252;2023-06-24T00:13:21;12.15;;;4.95;;
46845;SDS011;33947;46.804;134.252;2023-06-24T00:16:28;22.05;;;5.82;;
46845;SDS011;33947;46.804;134.252;2023-06-24T00:19:35;8.02;;;5.05;;
46845;SDS011;33947;46.804;134.252;2023-06-24T00:22:42;11.38;;;5.15;;
46845;SDS011;33947;46.804;134.252;2023-06-24T00:25:49;9.73;;;4.78;;
46845;SDS011;33947;46.804;134.252;2023-06-24T00:28:55;5.13;;;4.55;;
46845;SDS011;33947;46.804;134.252;2023-06-24T00:32:00;7.13;;;4.13;;
46845;SDS011;33947;46.804;134.252;2023-06-24T00:35:07;5.82;;;4.03;;
46845;SDS011;33947;46.804;134.252;2023-06-24T00:38:12;7.40;;;4.70;;
46845;SDS011;33947;46.804;134.252;2023-06-24T00:41:19;9.95;;;4.40;;
46845;SDS011;33947;46.804;134.252;2023-06-24T00:44:28;8.10;;;4.10;;
46845;SDS011;33947;46.804;134.252;2023-06-24T00:47:37;10.38;;;4.57;;
46845;SDS011;33947;46.804;134.252;2023-06-24T00:50:44;9.30;;;4.40;;
46845;SDS011;33947;46.804;134.252;2023-06-24T00:53:53;10.25;;;5.05;;
46845;SDS011;33947;46.804;134.252;2023-06-24T00:57:03;8.82;;;4.22;;
46845;SDS011;33947;46.804;134.252;2023-06-24T01:00:10;8.75;;;4.22;;
46845;SDS011;33947;46.804;134.252;2023-06-24T01:03:24;10.47;;;4.83;;
46845;SDS011;33947;46.804;134.252;2023-06-24T01:06:31;8.38;;;4.60;;
46845;SDS011;33947;46.804;134.252;2023-06-24T01:09:38;10.40;;;5.13;;
46845;SDS011;33947;46.804;134.252;2023-06-24T01:12:44;6.85;;;4.78;;
46845;SDS011;33947;46.804;134.252;2023-06-24T01:15:50;11.35;;;5.18;;
46845;SDS011;33947;46.804;134.252;2023-06-24T01:18:57;9.15;;;4.70;;
46845;SDS011;33947;46.804;134.252;2023-06-24T01:35:21;11.40;;;4.45;;
46845;SDS011;33947;46.804;134.252;2023-06-24T01:38:35;8.02;;;4.50;;
46845;SDS011;33947;46.804;134.252;2023-06-24T01:41:47;7.78;;;4.28;;
46845;SDS011;33947;46.804;134.252;2023-06-24T01:45:01;8.63;;;4.53;;
46845;SDS011;33947;46.804;134.252;2023-06-24T01:48:11;5.53;;;4.13;;
46845;SDS011;33947;46.804;134.252;2023-06-24T01:51:21;7.55;;;5.05;;
46845;SDS011;33947;46.804;134.252;2023-06-24T01:54:29;5.18;;;4.13;;
46845;SDS011;33947;46.804;134.252;2023-06-24T01:57:38;7.70;;;3.55;;
46845;SDS011;33947;46.804;134.252;2023-06-24T02:00:49;6.18;;;3.78;;
46845;SDS011;33947;46.804;134.252;2023-06-24T02:03:57;5.65;;;3.80;;
46845;SDS011;33947;46.804;134.252;2023-06-24T02:07:06;9.95;;;3.60;;
46845;SDS011;33947;46.804;134.252;2023-06-24T02:10:15;4.75;;;4.13;;
46845;SDS011;33947;46.804;134.252;2023-06-24T02:13:23;5.88;;;3.92;;
46845;SDS011;33947;46.804;134.252;2023-06-24T02:16:40;5.95;;;3.90;;
46845;SDS011;33947;46.804;134.252;2023-06-24T02:19:48;13.25;;;5.68;;
46845;SDS011;33947;46.804;134.252;2023-06-24T02:22:57;9.20;;;4.82;;
46845;SDS011;33947;46.804;134.252;2023-06-24T02:26:05;8.63;;;4.80;;
46845;SDS011;33947;46.804;134.252;2023-06-24T02:29:15;10.93;;;4.80;;
46845;SDS011;33947;46.804;134.252;2023-06-24T02:32:26;19.98;;;6.95;;
46845;SDS011;33947;46.804;134.252;2023-06-24T02:35:32;6.97;;;4.32;;
46845;SDS011;33947;46.804;134.252;2023-06-24T02:38:39;13.05;;;5.22;;
46845;SDS011;33947;46.804;134.252;2023-06-24T02:41:44;6.78;;;4.50;;
46845;SDS011;33947;46.804;134.252;2023-06-24T02:44:51;8.00;;;4.10;;
46845;SDS011;33947;46.804;134.252;2023-06-24T02:47:58;7.07;;;4.45;;
46845;SDS011;33947;46.804;134.252;2023-06-24T02:51:06;8.68;;;4.50;;
46845;SDS011;33947;46.804;134.252;2023-06-24T02:54:18;7.97;;;4.32;;
46845;SDS011;33947;46.804;134.252;2023-06-24T02:57:50;9.75;;;4.05;;
46845;SDS011;33947;46.804;134.252;2023-06-24T03:01:15;6.57;;;4.50;;
46845;SDS011;33947;46.804;134.252;2023-06-24T03:04:24;5.95;;;4.40;;
46845;SDS011;33947;46.804;134.252;2023-06-24T03:07:34;7.03;;;3.97;;
46845;SDS011;33947;46.804;134.252;2023-06-24T03:10:42;11.85;;;4.43;;
46845;SDS011;33947;46.804;134.252;2023-06-24T03:13:56;8.38;;;4.15;;
46845;SDS011;33947;46.804;134.252;2023-06-24T03:17:12;8.88;;;3.92;;
46845;SDS011;33947;46.804;134.252;2023-06-24T03:20:20;11.55;;;4.50;;
46845;SDS011;33947;46.804;134.252;2023-06-24T03:23:27;6.22;;;3.65;;
46845;SDS011;33947;46.804;134.252;2023-06-24T03:26:35;7.70;;;4.85;;
46845;SDS011;33947;46.804;134.252;2023-06-24T03:29:46;7.38;;;3.70;;
46845;SDS011;33947;46.804;134.252;2023-06-24T03:32:54;6.60;;;4.03;;
46845;SDS011;33947;46.804;134.252;2023-06-24T03:36:00;7.60;;;4.10;;
46845;SDS011;33947;46.804;134.252;2023-06-24T03:39:15;7.82;;;3.72;;
46845;SDS011;33947;46.804;134.252;2023-06-24T03:42:21;7.45;;;3.55;;
46845;SDS011;33947;46.804;134.252;2023-06-24T03:45:26;6.63;;;4.25;;
46845;SDS011;33947;46.804;134.252;2023-06-24T03:48:30;5.68;;;3.70;;
46845;SDS011;33947;46.804;134.252;2023-06-24T03:51:37;12.20;;;4.47;;
46845;SDS011;33947;46.804;134.252;2023-06-24T03:54:43;10.93;;;3.65;;
46845;SDS011;33947;46.804;134.252;2023-06-24T03:57:49;7.78;;;3.75;;
46845;SDS011;33947;46.804;134.252;2023-06-24T04:00:56;6.50;;;3.50;;
46845;SDS011;33947;46.804;134.252;2023-06-24T04:04:05;11.48;;;4.40;;
46845;SDS011;33947;46.804;134.252;2023-06-24T04:07:12;6.70;;;3.73;;
46845;SDS011;33947;46.804;134.252;2023-06-24T04:10:19;5.43;;;3.72;;
46845;SDS011;33947;46.804;134.252;2023-06-24T04:13:25;6.78;;;4.10;;
46845;SDS011;33947;46.804;134.252;2023-06-24T04:16:29;5.70;;;3.88;;
46845;SDS011;33947;46.804;134.252;2023-06-24T04:19:38;11.18;;;3.97;;
46845;SDS011;33947;46.804;134.252;2023-06-24T04:22:45;14.02;;;4.97;;
46845;SDS011;33947;46.804;134.252;2023-06-24T04:25:53;5.72;;;4.10;;
46845;SDS011;33947;46.804;134.252;2023-06-24T04:28:59;7.65;;;4.63;;
46845;SDS011;33947;46.804;134.252;2023-06-24T04:32:06;8.77;;;3.78;;
46845;SDS011;33947;46.804;134.252;2023-06-24T04:35:13;6.00;;;3.67;;
46845;SDS011;33947;46.804;134.252;2023-06-24T04:38:25;5.25;;;3.85;;
46845;SDS011;33947;46.804;134.252;2023-06-24T04:41:32;7.38;;;4.30;;
46845;SDS011;33947;46.804;134.252;2023-06-24T04:44:37;11.25;;;4.85;;
46845;SDS011;33947;46.804;134.252;2023-06-24T04:47:41;8.85;;;4.13;;
46845;SDS011;33947;46.804;134.252;2023-06-24T04:50:50;6.97;;;4.10;;
46845;SDS011;33947;46.804;134.252;2023-06-24T04:53:58;5.60;;;4.20;;
46845;SDS011;33947;46.804;134.252;2023-06-24T04:57:08;7.97;;;3.90;;
46845;SDS011;33947;46.804;134.252;2023-06-24T05:00:23;8.55;;;4.57;;
46845;SDS011;33947;46.804;134.252;2023-06-24T05:03:30;9.45;;;3.90;;
46845;SDS011;33947;46.804;134.252;2023-06-24T05:06:43;11.07;;;4.63;;
46845;SDS011;33947;46.804;134.252;2023-06-24T05:09:56;8.27;;;4.03;;
46845;SDS011;33947;46.804;134.252;2023-06-24T05:13:02;8.40;;;3.95;;
46845;SDS011;33947;46.804;134.252;2023-06-24T05:16:09;5.63;;;4.03;;
46845;SDS011;33947;46.804;134.252;2023-06-24T05:19:18;6.43;;;4.05;;
46845;SDS011;33947;46.804;134.252;2023-06-24T05:22:25;12.75;;;4.00;;
46845;SDS011;33947;46.804;134.252;2023-06-24T05:25:31;6.60;;;3.85;;
46845;SDS011;33947;46.804;134.252;2023-06-24T05:28:39;6.47;;;4.28;;
46845;SDS011;33947;46.804;134.252;2023-06-24T05:31:45;6.53;;;4.20;;
46845;SDS011;33947;46.804;134.252;2023-06-24T05:34:52;12.15;;;4.57;;
46845;SDS011;33947;46.804;134.252;2023-06-24T05:38:02;4.60;;;3.97;;
46845;SDS011;33947;46.804;134.252;2023-06-24T05:41:09;7.65;;;4.03;;
46845;SDS011;33947;46.804;134.252;2023-06-24T05:44:16;6.53;;;3.95;;
46845;SDS011;33947;46.804;134.252;2023-06-24T05:47:24;4.30;;;3.85;;
46845;SDS011;33947;46.804;134.252;2023-06-24T05:51:29;8.23;;;4.53;;
46845;SDS011;33947;46.804;134.252;2023-06-24T05:55:21;19.42;;;7.15;;
46845;SDS011;33947;46.804;134.252;2023-06-24T06:00:01;8.77;;;5.15;;
46845;SDS011;33947;46.804;134.252;2023-06-24T06:03:47;13.57;;;4.60;;
46845;SDS011;33947;46.804;134.252;2023-06-24T06:07:04;5.28;;;4.25;;
46845;SDS011;33947;46.804;134.252;2023-06-24T06:10:25;4.63;;;3.83;;
46845;SDS011;33947;46.804;134.252;2023-06-24T06:17:18;6.05;;;4.05;;
46845;SDS011;33947;46.804;134.252;2023-06-24T06:20:36;9.50;;;4.50;;
46845;SDS011;33947;46.804;134.252;2023-06-24T06:24:01;7.28;;;4.13;;
46845;SDS011;33947;46.804;134.252;2023-06-24T06:27:33;8.32;;;4.22;;
46845;SDS011;33947;46.804;134.252;2023-06-24T06:31:13;7.32;;;4.40;;
46845;SDS011;33947;46.804;134.252;2023-06-24T06:43:54;7.95;;;4.07;;
46845;SDS011;33947;46.804;134.252;2023-06-24T06:47:49;6.03;;;4.57;;
46845;SDS011;33947;46.804;134.252;2023-06-24T06:52:20;6.90;;;4.72;;
46845;SDS011;33947;46.804;134.252;2023-06-24T07:01:39;5.53;;;4.03;;
46845;SDS011;33947;46.804;134.252;2023-06-24T07:05:32;10.15;;;4.70;;
46845;SDS011;33947;46.804;134.252;2023-06-24T07:08:55;8.18;;;4.50;;
46845;SDS011;33947;46.804;134.252;2023-06-24T07:12:22;8.65;;;4.78;;
46845;SDS011;33947;46.804;134.252;2023-06-24T07:15:44;7.75;;;4.38;;
46845;SDS011;33947;46.804;134.252;2023-06-24T07:19:21;8.98;;;4.30;;
46845;SDS011;33947;46.804;134.252;2023-06-24T07:23:32;5.75;;;4.15;;
46845;SDS011;33947;46.804;134.252;2023-06-24T07:27:52;5.75;;;4.55;;
46845;SDS011;33947;46.804;134.252;2023-06-24T07:35:22;6.35;;;4.10;;
46845;SDS011;33947;46.804;134.252;2023-06-24T07:38:43;7.82;;;4.30;;
46845;SDS011;33947;46.804;134.252;2023-06-24T07:42:07;6.67;;;4.20;;
46845;SDS011;33947;46.804;134.252;2023-06-24T07:46:20;6.72;;;4.35;;
46845;SDS011;33947;46.804;134.252;2023-06-24T07:54:28;9.20;;;4.15;;
46845;SDS011;33947;46.804;134.252;2023-06-24T07:57:34;6.57;;;4.10;;
46845;SDS011;33947;46.804;134.252;2023-06-24T08:00:41;5.75;;;4.40;;
46845;SDS011;33947;46.804;134.252;2023-06-24T08:03:48;5.07;;;4.05;;
46845;SDS011;33947;46.804;134.252;2023-06-24T08:06:54;6.15;;;4.13;;
46845;SDS011;33947;46.804;134.252;2023-06-24T08:10:01;7.60;;;3.65;;
46845;SDS011;33947;46.804;134.252;2023-06-24T08:13:09;5.18;;;3.83;;
46845;SDS011;33947;46.804;134.252;2023-06-24T08:16:16;9.40;;;4.53;;
46845;SDS011;33947;46.804;134.252;2023-06-24T08:19:26;13.82;;;4.82;;
46845;SDS011;33947;46.804;134.252;2023-06-24T08:22:32;6.57;;;4.10;;
46845;SDS011;33947;46.804;134.252;2023-06-24T08:25:38;6.78;;;3.97;;
46845;SDS011;33947;46.804;134.252;2023-06-24T08:28:46;7.72;;;4.32;;
46845;SDS011;33947;46.804;134.252;2023-06-24T08:31:53;7.07;;;4.43;;
46845;SDS011;33947;46.804;134.252;2023-06-24T08:35:00;6.47;;;4.45;;
46845;SDS011;33947;46.804;134.252;2023-06-24T08:38:07;6.20;;;4.25;;
46845;SDS011;33947;46.804;134.252;2023-06-24T08:41:14;13.15;;;5.10;;
46845;SDS011;33947;46.804;134.252;2023-06-24T08:44:20;7.70;;;4.20;;
46845;SDS011;33947;46.804;134.252;2023-06-24T08:47:27;6.13;;;4.35;;
46845;SDS011;33947;46.804;134.252;2023-06-24T08:50:37;6.78;;;3.78;;
46845;SDS011;33947;46.804;134.252;2023-06-24T08:53:56;6.50;;;4.07;;
46845;SDS011;33947;46.804;134.252;2023-06-24T08:57:06;4.60;;;3.88;;
46845;SDS011;33947;46.804;134.252;2023-06-24T09:00:19;5.57;;;4.13;;
46845;SDS011;33947;46.804;134.252;2023-06-24T09:03:26;8.25;;;4.22;;
46845;SDS011;33947;46.804;134.252;2023-06-24T09:06:39;5.32;;;4.05;;
46845;SDS011;33947;46.804;134.252;2023-06-24T09:09:53;8.48;;;4.55;;
46845;SDS011;33947;46.804;134.252;2023-06-24T09:13:08;8.48;;;4.97;;
46845;SDS011;33947;46.804;134.252;2023-06-24T09:16:28;14.80;;;6.22;;
46845;SDS011;33947;46.804;134.252;2023-06-24T09:19:37;13.27;;;6.00;;
46845;SDS011;33947;46.804;134.252;2023-06-24T09:22:45;11.13;;;5.80;;
46845;SDS011;33947;46.804;134.252;2023-06-24T09:25:57;13.27;;;5.70;;
46845;SDS011;33947;46.804;134.252;2023-06-24T09:29:07;13.40;;;5.30;;
46845;SDS011;33947;46.804;134.252;2023-06-24T09:32:15;13.20;;;5.22;;
46845;SDS011;33947;46.804;134.252;2023-06-24T09:35:20;15.45;;;6.15;;
46845;SDS011;33947;46.804;134.252;2023-06-24T09:38:36;9.93;;;5.80;;
46845;SDS011;33947;46.804;134.252;2023-06-24T09:41:49;10.48;;;5.18;;
46845;SDS011;33947;46.804;134.252;2023-06-24T09:44:56;5.82;;;4.78;;
46845;SDS011;33947;46.804;134.252;2023-06-24T09:48:11;10.95;;;4.88;;
46845;SDS011;33947;46.804;134.252;2023-06-24T09:51:18;10.70;;;5.07;;
46845;SDS011;33947;46.804;134.252;2023-06-24T09:54:26;13.98;;;6.05;;
46845;SDS011;33947;46.804;134.252;2023-06-24T09:57:45;12.43;;;6.22;;
46845;SDS011;33947;46.804;134.252;2023-06-24T10:00:59;10.88;;;5.57;;
46845;SDS011;33947;46.804;134.252;2023-06-24T10:04:12;9.90;;;5.40;;
46845;SDS011;33947;46.804;134.252;2023-06-24T10:07:26;8.98;;;5.43;;
46845;SDS011;33947;46.804;134.252;2023-06-24T10:10:34;9.07;;;5.43;;
46845;SDS011;33947;46.804;134.252;2023-06-24T10:13:43;11.48;;;4.93;;
46845;SDS011;33947;46.804;134.252;2023-06-24T10:16:51;12.95;;;5.15;;
46845;SDS011;33947;46.804;134.252;2023-06-24T10:20:10;15.98;;;5.65;;
46845;SDS011;33947;46.804;134.252;2023-06-24T10:23:16;8.70;;;5.32;;
46845;SDS011;33947;46.804;134.252;2023-06-24T10:29:36;9.27;;;5.00;;
46845;SDS011;33947;46.804;134.252;2023-06-24T10:32:46;14.45;;;5.28;;
46845;SDS011;33947;46.804;134.252;2023-06-24T10:36:03;13.38;;;6.40;;
46845;SDS011;33947;46.804;134.252;2023-06-24T10:39:34;13.23;;;6.50;;
46845;SDS011;33947;46.804;134.252;2023-06-24T10:42:57;8.20;;;5.10;;
46845;SDS011;33947;46.804;134.252;2023-06-24T10:46:06;13.32;;;4.93;;
46845;SDS011;33947;46.804;134.252;2023-06-24T10:49:25;9.43;;;5.25;;
46845;SDS011;33947;46.804;134.252;2023-06-24T10:52:42;19.23;;;5.45;;
46845;SDS011;33947;46.804;134.252;2023-06-24T10:56:02;12.57;;;5.05;;
46845;SDS011;33947;46.804;134.252;2023-06-24T10:59:13;13.63;;;5.15;;
46845;SDS011;33947;46.804;134.252;2023-06-24T11:02:27;6.97;;;5.05;;
46845;SDS011;33947;46.804;134.252;2023-06-24T11:05:33;7.53;;;5.00;;
46845;SDS011;33947;46.804;134.252;2023-06-24T11:08:44;8.18;;;4.93;;
46845;SDS011;33947;46.804;134.252;2023-06-24T11:11:54;10.88;;;4.97;;
46845;SDS011;33947;46.804;134.252;2023-06-24T11:15:03;8.88;;;4.55;;
46845;SDS011;33947;46.804;134.252;2023-06-24T11:18:16;8.05;;;4.70;;
46845;SDS011;33947;46.804;134.252;2023-06-24T11:21:27;7.38;;;4.50;;
46845;SDS011;33947;46.804;134.252;2023-06-24T11:24:39;6.97;;;4.70;;
46845;SDS011;33947;46.804;134.252;2023-06-24T11:27:46;12.05;;;5.20;;
46845;SDS011;33947;46.804;134.252;2023-06-24T11:30:53;7.95;;;5.00;;
46845;SDS011;33947;46.804;134.252;2023-06-24T11:34:00;10.50;;;5.18;;
46845;SDS011;33947;46.804;134.252;2023-06-24T11:37:11;10.25;;;5.32;;
46845;SDS011;33947;46.804;134.252;2023-06-24T11:40:16;8.32;;;5.28;;
46845;SDS011;33947;46.804;134.252;2023-06-24T11:43:27;10.60;;;5.28;;
46845;SDS011;33947;46.804;134.252;2023-06-24T11:46:34;11.75;;;4.85;;
46845;SDS011;33947;46.804;134.252;2023-06-24T11:49:47;15.73;;;5.70;;
46845;SDS011;33947;46.804;134.252;2023-06-24T11:53:02;16.95;;;5.70;;
46845;SDS011;33947;46.804;134.252;2023-06-24T11:56:09;12.43;;;5.68;;
46845;SDS011;33947;46.804;134.252;2023-06-24T11:59:17;15.43;;;6.22;;
46845;SDS011;33947;46.804;134.252;2023-06-24T12:02:28;10.23;;;6.97;;
46845;SDS011;33947;46.804;134.252;2023-06-24T12:05:36;8.48;;;4.97;;
46845;SDS011;33947;46.804;134.252;2023-06-24T12:08:53;10.13;;;5.50;;
46845;SDS011;33947;46.804;134.252;2023-06-24T12:12:04;7.47;;;5.38;;
46845;SDS011;33947;46.804;134.252;2023-06-24T12:15:15;9.07;;;4.70;;
46845;SDS011;33947;46.804;134.252;2023-06-24T12:18:22;13.23;;;5.57;;
46845;SDS011;33947;46.804;134.252;2023-06-24T12:21:28;10.27;;;5.22;;
46845;SDS011;33947;46.804;134.252;2023-06-24T12:24:34;12.65;;;5.53;;
46845;SDS011;33947;46.804;134.252;2023-06-24T12:27:41;8.70;;;5.35;;
46845;SDS011;33947;46.804;134.252;2023-06-24T12:30:48;13.00;;;5.47;;
46845;SDS011;33947;46.804;134.252;2023-06-24T12:33:59;7.00;;;5.72;;
46845;SDS011;33947;46.804;134.252;2023-06-24T12:37:05;8.82;;;5.85;;
46845;SDS011;33947;46.804;134.252;2023-06-24T12:40:12;10.00;;;5.88;;
46845;SDS011;33947;46.804;134.252;2023-06-24T12:43:18;8.57;;;5.22;;
46845;SDS011;33947;46.804;134.252;2023-06-24T12:46:25;10.02;;;5.38;;
46845;SDS011;33947;46.804;134.252;2023-06-24T12:49:32;12.50;;;5.63;;
46845;SDS011;33947;46.804;134.252;2023-06-24T12:52:39;7.53;;;5.47;;
46845;SDS011;33947;46.804;134.252;2023-06-24T12:55:45;9.77;;;5.07;;
46845;SDS011;33947;46.804;134.252;2023-06-24T12:58:55;14.57;;;5.43;;
46845;SDS011;33947;46.804;134.252;2023-06-24T13:02:04;6.60;;;5.03;;
46845;SDS011;33947;46.804;134.252;2023-06-24T13:05:11;6.53;;;5.00;;
46845;SDS011;33947;46.804;134.252;2023-06-24T13:08:18;10.07;;;5.70;;
46845;SDS011;33947;46.804;134.252;2023-06-24T13:11:25;10.88;;;5.57;;
46845;SDS011;33947;46.804;134.252;2023-06-24T13:14:31;7.40;;;5.97;;
46845;SDS011;33947;46.804;134.252;2023-06-24T13:17:51;8.38;;;5.85;;
46845;SDS011;33947;46.804;134.252;2023-06-24T13:21:06;9.05;;;5.90;;
46845;SDS011;33947;46.804;134.252;2023-06-24T13:24:20;8.60;;;5.57;;
46845;SDS011;33947;46.804;134.252;2023-06-24T13:27:26;8.27;;;5.93;;
46845;SDS011;33947;46.804;134.252;2023-06-24T13:30:35;8.48;;;5.30;;
46845;SDS011;33947;46.804;134.252;2023-06-24T13:33:41;7.28;;;5.28;;
46845;SDS011;33947;46.804;134.252;2023-06-24T13:36:52;11.25;;;6.28;;
46845;SDS011;33947;46.804;134.252;2023-06-24T13:39:58;8.48;;;5.22;;
46845;SDS011;33947;46.804;134.252;2023-06-24T13:43:06;11.48;;;4.97;;
46845;SDS011;33947;46.804;134.252;2023-06-24T13:46:16;12.50;;;5.55;;
46845;SDS011;33947;46.804;134.252;2023-06-24T13:49:25;7.68;;;5.30;;
46845;SDS011;33947;46.804;134.252;2023-06-24T13:52:34;8.02;;;5.20;;
46845;SDS011;33947;46.804;134.252;2023-06-24T13:55:44;7.75;;;4.97;;
46845;SDS011;33947;46.804;134.252;2023-06-24T13:58:53;7.65;;;5.00;;
46845;SDS011;33947;46.804;134.252;2023-06-24T14:02:00;8.38;;;5.10;;
46845;SDS011;33947;46.804;134.252;2023-06-24T14:05:05;7.95;;;5.18;;
46845;SDS011;33947;46.804;134.252;2023-06-24T14:08:12;8.95;;;5.53;;
46845;SDS011;33947;46.804;134.252;2023-06-24T14:11:28;9.90;;;5.38;;
46845;SDS011;33947;46.804;134.252;2023-06-24T14:14:35;8.43;;;5.50;;
46845;SDS011;33947;46.804;134.252;2023-06-24T14:17:44;8.70;;;5.30;;
46845;SDS011;33947;46.804;134.252;2023-06-24T14:20:51;9.43;;;5.50;;
46845;SDS011;33947;46.804;134.252;2023-06-24T14:24:00;14.13;;;6.13;;
46845;SDS011;33947;46.804;134.252;2023-06-24T14:27:22;11.10;;;5.85;;
46845;SDS011;33947;46.804;134.252;2023-06-24T14:30:35;7.55;;;5.70;;
46845;SDS011;33947;46.804;134.252;2023-06-24T14:33:41;10.35;;;6.22;;
46845;SDS011;33947;46.804;134.252;2023-06-24T14:36:48;13.43;;;5.75;;
46845;SDS011;33947;46.804;134.252;2023-06-24T14:40:02;9.40;;;5.97;;
46845;SDS011;33947;46.804;134.252;2023-06-24T14:43:12;10.23;;;5.95;;
46845;SDS011;33947;46.804;134.252;2023-06-24T14:46:19;10.40;;;6.00;;
46845;SDS011;33947;46.804;134.252;2023-06-24T14:49:29;9.88;;;6.03;;
46845;SDS011;33947;46.804;134.252;2023-06-24T14:52:35;9.50;;;5.60;;
46845;SDS011;33947;46.804;134.252;2023-06-24T14:55:45;10.13;;;6.70;;
46845;SDS011;33947;46.804;134.252;2023-06-24T14:58:54;7.40;;;5.90;;
46845;SDS011;33947;46.804;134.252;2023-06-24T15:02:03;11.93;;;6.43;;
46845;SDS011;33947;46.804;134.252;2023-06-24T15:05:08;9.07;;;6.53;;
46845;SDS011;33947;46.804;134.252;2023-06-24T15:08:18;13.50;;;5.72;;
46845;SDS011;33947;46.804;134.252;2023-06-24T15:11:25;7.97;;;5.65;;
46845;SDS011;33947;46.804;134.252;2023-06-24T15:14:31;11.40;;;5.95;;
46845;SDS011;33947;46.804;134.252;2023-06-24T15:17:41;8.85;;;5.82;;
46845;SDS011;33947;46.804;134.252;2023-06-24T15:20:50;7.75;;;5.47;;
46845;SDS011;33947;46.804;134.252;2023-06-24T15:23:57;6.65;;;5.40;;
46845;SDS011;33947;46.804;134.252;2023-06-24T15:27:06;8.65;;;5.70;;
46845;SDS011;33947;46.804;134.252;2023-06-24T15:30:13;10.38;;;5.47;;
46845;SDS011;33947;46.804;134.252;2023-06-24T15:33:25;7.93;;;5.40;;
46845;SDS011;33947;46.804;134.252;2023-06-24T15:36:41;8.40;;;5.47;;
46845;SDS011;33947;46.804;134.252;2023-06-24T15:39:49;8.00;;;5.40;;
46845;SDS011;33947;46.804;134.252;2023-06-24T15:42:55;9.95;;;5.82;;
46845;SDS011;33947;46.804;134.252;2023-06-24T15:46:05;8.75;;;6.50;;
46845;SDS011;33947;46.804;134.252;2023-06-24T15:49:13;9.20;;;5.82;;
46845;SDS011;33947;46.804;134.252;2023-06-24T15:52:22;8.05;;;5.72;;
46845;SDS011;33947;46.804;134.252;2023-06-24T15:55:33;8.50;;;5.78;;
46845;SDS011;33947;46.804;134.252;2023-06-24T15:58:39;11.98;;;5.88;;
46845;SDS011;33947;46.804;134.252;2023-06-24T16:01:45;10.52;;;6.95;;
46845;SDS011;33947;46.804;134.252;2023-06-24T16:04:52;6.90;;;5.30;;
46845;SDS011;33947;46.804;134.252;2023-06-24T16:07:59;7.03;;;5.78;;
46845;SDS011;33947;46.804;134.252;2023-06-24T16:11:08;11.68;;;5.93;;
46845;SDS011;33947;46.804;134.252;2023-06-24T16:14:20;7.72;;;5.90;;
46845;SDS011;33947;46.804;134.252;2023-06-24T16:17:25;8.10;;;5.97;;
46845;SDS011;33947;46.804;134.252;2023-06-24T16:20:31;9.77;;;5.90;;
46845;SDS011;33947;46.804;134.252;2023-06-24T16:23:39;10.52;;;5.88;;
46845;SDS011;33947;46.804;134.252;2023-06-24T16:26:46;8.07;;;6.25;;
46845;SDS011;33947;46.804;134.252;2023-06-24T16:29:56;8.90;;;6.03;;
46845;SDS011;33947;46.804;134.252;2023-06-24T16:33:03;9.68;;;6.47;;
46845;SDS011;33947;46.804;134.252;2023-06-24T16:36:12;10.35;;;6.47;;
46845;SDS011;33947;46.804;134.252;2023-06-24T16:39:19;8.35;;;6.32;;
46845;SDS011;33947;46.804;134.252;2023-06-24T16:42:32;12.07;;;6.85;;
46845;SDS011;33947;46.804;134.252;2023-06-24T16:45:38;8.25;;;6.68;;
46845;SDS011;33947;46.804;134.252;2023-06-24T16:48:50;9.05;;;6.30;;
46845;SDS011;33947;46.804;134.252;2023-06-24T16:51:57;9.05;;;6.20;;
46845;SDS011;33947;46.804;134.252;2023-06-24T16:55:04;8.27;;;6.13;;
46845;SDS011;33947;46.804;134.252;2023-06-24T16:58:18;12.48;;;6.70;;
46845;SDS011;33947;46.804;134.252;2023-06-24T17:01:24;10.45;;;5.95;;
46845;SDS011;33947;46.804;134.252;2023-06-24T17:04:34;10.05;;;6.53;;
46845;SDS011;33947;46.804;134.252;2023-06-24T17:07:40;14.48;;;6.88;;
46845;SDS011;33947;46.804;134.252;2023-06-24T17:14:07;9.60;;;6.50;;
46845;SDS011;33947;46.804;134.252;2023-06-24T17:17:12;9.18;;;6.28;;
46845;SDS011;33947;46.804;134.252;2023-06-24T17:20:17;9.95;;;6.28;;
46845;SDS011;33947;46.804;134.252;2023-06-24T17:23:47;9.82;;;6.90;;
46845;SDS011;33947;46.804;134.252;2023-06-24T17:27:32;9.73;;;6.85;;
46845;SDS011;33947;46.804;134.252;2023-06-24T17:30:39;10.18;;;6.85;;
46845;SDS011;33947;46.804;134.252;2023-06-24T17:33:48;11.98;;;6.63;;
46845;SDS011;33947;46.804;134.252;2023-06-24T17:36:54;8.75;;;6.07;;
46845;SDS011;33947;46.804;134.252;2023-06-24T17:40:03;9.40;;;6.22;;
46845;SDS011;33947;46.804;134.252;2023-06-24T17:43:12;9.48;;;6.53;;
46845;SDS011;33947;46.804;134.252;2023-06-24T17:46:19;8.27;;;5.85;;
46845;SDS011;33947;46.804;134.252;2023-06-24T17:49:25;10.30;;;6.00;;
46845;SDS011;33947;46.804;134.252;2023-06-24T17:52:36;8.10;;;5.07;;
46845;SDS011;33947;46.804;134.252;2023-06-24T17:55:43;8.55;;;5.35;;
46845;SDS011;33947;46.804;134.252;2023-06-24T17:58:50;16.33;;;5.97;;
46845;SDS011;33947;46.804;134.252;2023-06-24T18:01:56;7.93;;;5.10;;
46845;SDS011;33947;46.804;134.252;2023-06-24T18:05:03;8.35;;;4.97;;
46845;SDS011;33947;46.804;134.252;2023-06-24T18:08:14;7.50;;;5.10;;
46845;SDS011;33947;46.804;134.252;2023-06-24T18:11:20;8.98;;;5.28;;
46845;SDS011;33947;46.804;134.252;2023-06-24T18:14:28;12.18;;;5.03;;
46845;SDS011;33947;46.804;134.252;2023-06-24T18:17:37;8.63;;;5.32;;
46845;SDS011;33947;46.804;134.252;2023-06-24T18:20:42;7.00;;;4.53;;
46845;SDS011;33947;46.804;134.252;2023-06-24T18:24:02;7.90;;;4.97;;
46845;SDS011;33947;46.804;134.252;2023-06-24T18:27:09;6.60;;;5.03;;
46845;SDS011;33947;46.804;134.252;2023-06-24T18:30:18;8.10;;;4.90;;
46845;SDS011;33947;46.804;134.252;2023-06-24T18:33:26;7.32;;;5.05;;
46845;SDS011;33947;46.804;134.252;2023-06-24T18:36:30;6.85;;;5.30;;
46845;SDS011;33947;46.804;134.252;2023-06-24T18:39:38;7.18;;;5.20;;
46845;SDS011;33947;46.804;134.252;2023-06-24T18:42:53;9.63;;;5.75;;
46845;SDS011;33947;46.804;134.252;2023-06-24T18:45:59;8.38;;;5.57;;
46845;SDS011;33947;46.804;134.252;2023-06-24T18:49:08;11.80;;;5.20;;
46845;SDS011;33947;46.804;134.252;2023-06-24T18:52:14;7.57;;;4.70;;
46845;SDS011;33947;46.804;134.252;2023-06-24T18:55:20;6.47;;;4.72;;
46845;SDS011;33947;46.804;134.252;2023-06-24T18:58:27;6.38;;;4.50;;
46845;SDS011;33947;46.804;134.252;2023-06-24T19:01:34;6.25;;;4.57;;
46845;SDS011;33947;46.804;134.252;2023-06-24T19:04:41;8.10;;;4.78;;
46845;SDS011;33947;46.804;134.252;2023-06-24T19:07:48;7.00;;;4.35;;
46845;SDS011;33947;46.804;134.252;2023-06-24T19:10:57;5.80;;;4.25;;
46845;SDS011;33947;46.804;134.252;2023-06-24T19:14:03;6.68;;;4.57;;
46845;SDS011;33947;46.804;134.252;2023-06-24T19:17:10;9.48;;;4.40;;
46845;SDS011;33947;46.804;134.252;2023-06-24T19:20:16;5.60;;;3.92;;
46845;SDS011;33947;46.804;134.252;2023-06-24T19:26:29;7.20;;;4.47;;